MDSD/SDQ METAR and TAF weather

Enter ICAO airport designator
Station Type Date Time Source
MDSD METAR 2022/06/27 17:00 UTC NOAA

MDSD 271700Z 14015KT 9999 FEW020CB FEW022 33/23 Q1017 CB/S/SW


Station Type Date Time Source
MDSD Decoded METAR 2022/06/27 17:00 UTC NOAA

Las Americas, Dominican Republic (MDSD) 18-26N 069-40W
Jun 27, 2022 - 01:00 PM EDT / 2022.06.27 1700 UTC
Wind: from the SE (140 degrees) at 17 MPH (15 KT):0
Visibility: greater than 7 mile(s):0
Sky conditions: mostly clear
Weather: Cumulonimbus clouds observed
Temperature: 91 F (33 C)
Heat index: 99.1 F (37.3 C):1
Dew Point: 73 F (23 C)
Relative Humidity: 55%
Pressure (altimeter): 30.03 in. Hg (1017 hPa)
ob: MDSD 271700Z 14015KT 9999 FEW020CB FEW022 33/23 Q1017 CB/S/SW
cycle: 17

Station Type Date Time Source
MDSD TAF 2022/06/27 18:57 UTC NOAA

TAF MDSD 271600Z 2718/2818 14012KT 9999 FEW020CB SCT022 SCT300
BECMG 2720/2801 9999 TS FEW020CB SCT022 BKN300
BECMG 2803/2805 06004KT

Example: see airport list